Aviation Digital Data Service (ADDS)

Output produced by METARs form (0146 UTC 28 March 2015)
found at http://aviationweather.gov/adds/metars/
 
KOAJ 280000Z 2800/2824 01010KT P6SM -RA SCT010 BKN015 
     TEMPO 2800/2801 BKN009 
     FM280700 33008KT P6SM VCSH SCT015 BKN035 
     FM281400 31010G18KT P6SM SCT040 AMD LTD TO CLD VIS AND WIND